Impacts TAF Board
For situational awareness. Not to be used for flight planning purposes.
IDs:

KACV - Arcata Arpt, CA, US

Issued at 0538 UTC 22 Oct 2021
Updated at 0713 UTC 22 Oct 2021
Potential Impact None Slight Moderate High
Time0706Z 22/08Z 22/09Z 22/10Z 22/11Z 22/12Z 22/13Z 22/14Z 22/15Z 22/16Z 22/17Z 22/18Z 22/19Z 22/20Z>>
Type OBS PRVL
  [TEMP]  
PRVL
  [TEMP]  
PRVL
  [TEMP]  
PRVL
  [TEMP]  
PRVL PRVL PRVL PRVL PRVL PRVL PRVL PRVL PRVL
VIS 3 3
  [0.75]  
3
  [0.75]  
3
  [0.75]  
3
  [0.75]  
3 3 3 3 3 6 6 6 6
CIG 7 12
  [7]  
12
  [7]  
12
  [7]  
12
  [7]  
12 12 12 12 12 35 35 35 35
Cover OVC OVC
  [BKN]  
OVC
  [BKN]  
OVC
  [BKN]  
OVC
  [BKN]  
OVC OVC OVC OVC OVC BKN BKN BKN BKN
FltCat IFR MVFR
  [LIFR]  
MVFR
  [LIFR]  
MVFR
  [LIFR]  
MVFR
  [LIFR]  
MVFR MVFR MVFR MVFR MVFR VFR VFR VFR VFR
WX RA BR -SHRA BR
  [BR]  
-SHRA BR
  [BR]  
-SHRA BR
  [BR]  
-SHRA BR
  [BR]  
-SHRA BR -SHRA BR -SHRA BR -SHRA BR -SHRA BR -SHRA VCSH -SHRA VCSH -SHRA VCSH -SHRA VCSH
WDir 130 150
[150]
150
[150]
150
[150]
150
[150]
150 150 150 150 150 160 160 160 160
WSpd 3 5
  [5]  
5
  [5]  
5
  [5]  
5
  [5]  
5 5 5 5 5 6 6 6 6
WGst -- --
  [--]  
--
  [--]  
--
  [--]  
--
  [--]  
-- -- -- -- -- -- -- -- --
Raw TAF
KACV 220538Z 2206/2306 VRB05KT 5SM -RA BR BKN020 OVC035
  TEMPO 2206/2208 2SM RA BR OVC015
  FM220800 15005KT 3SM -SHRA BR OVC012
  TEMPO 2208/2212 3/4SM BR BKN007
  FM221700 16006KT 6SM -SHRA VCSH SCT012 BKN035
  FM222100 19007KT 6SM HZ OVC050


Raw METAR
KACV 220706Z AUTO 13003KT 3SM RA BR BKN007 OVC014 13/12 A2990 RMK AO2 P0006 T01280122
KACV 220657Z AUTO 19004KT 2 1/2SM +RA BR FEW007 BKN012 OVC019 13/13 A2991 RMK AO2 P0003 T01330128
KACV 220653Z AUTO 19005KT 4SM +RA BR BKN012 BKN017 OVC033 13/13 A2992 RMK AO2 SLP136 P0018 T01330128
KACV 220553Z AUTO 13008KT 6SM -RA BR BKN016 BKN024 OVC038 13/12 A2989 RMK AO2 SLP125 P0015 6//// T01330122 10194 20128 56001
KACV 220548Z AUTO 13006KT 6SM RA BR BKN016 BKN024 OVC031 13/12 A2989 RMK AO2 P0015
KACV 220530Z AUTO 14004KT 3SM -RA BR BKN014 OVC022 13/12 A2989 RMK AO2 P0013 T01330122
KACV 220514Z AUTO 12007KT 2 1/2SM R32/4500VP6000FT +RA BR BKN014 BKN022 OVC050 13/12 A2990 RMK AO2 P0009 T01330122
KACV 220512Z AUTO 11007KT 3SM R32/4500VP6000FT +RA BR SCT014 BKN022 OVC049 13/12 A2990 RMK AO2 P0008 T01330122
KACV 220453Z AUTO 10004KT 7SM -RA FEW012 SCT018 OVC047 13/12 A2988 RMK AO2 SLP121 P0017 T01330122
KACV 220440Z AUTO 11007KT 3SM -RA BR FEW010 BKN033 OVC047 13/12 A2988 RMK AO2 P0016 T01330122

METAR Board
Radar Display
Forecast Discussion
For situational awareness. Not to be used for flight planning purposes.